Great Bend, New York
Current Conditions -  °F | °C
As of 1:58 AM on Tuesday 21 Oct 2014 (Local Time) from KGTB Reporting Station
Light Rain Light Rain  
Wind Chill:   Ceiling: 3600
Heat Index:   Visibility: 10mi
Dew Point:   Wind: 8mph
Humidity: 80%   Direction: 140°SE
Pressure: 29.84"   Gusts: NA
Location:  44.03°N, 75.72°W
Report Text: KGTB 210558Z AUTO 14007KT 10SM -RA SCT028 OVC036 09/05 A2984 RMK AO2 RAB0538DZB0536E0538 CIG 028 RWY03 SLP109 P0000 60000 T00850052 10095 20083 55004
Loading
Personal Weather Stations






























Interactive Weather Map
Tropical Storm Tracking
New forecast layout! Learn more

10-Day Weather Forecast

Advertisements
Track Severe Weather on mobile